Time;durP1;ratioP1;P1;durP2;ratioP2;P2;SDS_P1;SDS_P2;PMS_P1;PMS_P2;Temp;Humidity;BMP_temperature;BMP_pressure;BME280_temperature;BME280_humidity;BME280_pressure;Samples;Min_cycle;Max_cycle;Signal;HPM_P1;HPM_P2
2022/11/20 00:00:10;;;;;;;108.20;37.40;;;-7.40;99.90;;;;;;4368193;28;662070;-62
2022/11/20 00:02:57;;;;;;;95.63;31.37;;;-7.40;99.90;;;;;;4368120;28;662998;-63
2022/11/20 00:05:47;;;;;;;91.93;28.17;;;-7.40;99.90;;;;;;4392102;28;660895;-62
2022/11/20 00:08:34;;;;;;;99.90;33.87;;;-7.30;99.90;;;;;;4369239;28;660789;-63
2022/11/20 00:11:27;;;;;;;98.73;32.53;;;-7.40;99.90;;;;;;4373564;28;660417;-63
2022/11/20 00:14:14;;;;;;;86.60;29.83;;;-7.40;99.90;;;;;;4369149;28;661254;-62
2022/11/20 00:17:01;;;;;;;92.10;30.27;;;-7.50;99.90;;;;;;4373370;28;660629;-63
2022/11/20 00:19:48;;;;;;;115.47;36.83;;;-7.60;99.90;;;;;;4391992;28;661876;-63
2022/11/20 00:22:35;;;;;;;161.90;48.05;;;-7.50;99.90;;;;;;4372019;28;661897;-65
2022/11/20 00:25:22;;;;;;;151.38;44.63;;;-7.60;99.90;;;;;;4394966;28;661415;-62
2022/11/20 00:28:11;;;;;;;140.40;43.60;;;-7.60;99.90;;;;;;4390762;28;661851;-63
2022/11/20 00:31:02;;;;;;;117.13;37.30;;;-7.70;99.90;;;;;;4367857;28;662389;-63
2022/11/20 00:33:52;;;;;;;95.50;31.48;;;-7.70;99.90;;;;;;4367299;28;661797;-62
2022/11/20 00:36:44;;;;;;;94.97;30.15;;;-7.70;99.90;;;;;;4365387;28;660556;-64
2022/11/20 00:39:31;;;;;;;154.27;49.43;;;-7.70;99.90;;;;;;4373049;28;661120;-63
2022/11/20 00:42:18;;;;;;;128.77;39.97;;;-7.70;99.90;;;;;;4393693;28;662853;-62
2022/11/20 00:45:13;;;;;;;211.47;57.37;;;-7.70;99.90;;;;;;4375224;28;661598;-64
2022/11/20 00:48:03;;;;;;;167.52;49.58;;;-7.70;99.90;;;;;;4352642;28;661612;-64
2022/11/20 00:50:50;;;;;;;167.97;48.87;;;-7.70;99.90;;;;;;4375059;28;661638;-64
2022/11/20 00:53:40;;;;;;;127.17;40.03;;;-7.70;99.90;;;;;;4394138;28;663129;-63
2022/11/20 00:56:28;;;;;;;101.57;32.03;;;-7.70;99.90;;;;;;4370854;28;662672;-62
2022/11/20 00:59:15;;;;;;;131.10;39.17;;;-7.80;99.90;;;;;;4387230;28;662004;-64
2022/11/20 01:02:03;;;;;;;89.20;28.33;;;-7.80;99.90;;;;;;4397943;28;662679;-63
2022/11/20 01:04:53;;;;;;;103.10;32.77;;;-7.90;99.90;;;;;;4375913;28;661392;-63
2022/11/20 01:07:40;;;;;;;90.10;29.77;;;-7.80;99.90;;;;;;4374957;28;661776;-62
2022/11/20 01:10:27;;;;;;;99.23;31.50;;;-7.80;99.90;;;;;;4395011;28;661874;-63
2022/11/20 01:16:21;;;;;;;81.93;27.60;;;-7.80;99.90;;;;;;4371832;28;660811;-62
2022/11/20 01:19:12;;;;;;;95.07;29.87;;;-7.80;99.90;;;;;;4371816;28;661517;-62
2022/11/20 01:22:01;;;;;;;111.57;34.17;;;-7.90;99.90;;;;;;4371700;28;660560;-62
2022/11/20 01:24:48;;;;;;;127.97;40.23;;;-7.90;99.90;;;;;;4369707;28;661970;-62
2022/11/20 01:27:36;;;;;;;115.80;36.50;;;-7.90;99.90;;;;;;4374471;28;661879;-63
2022/11/20 01:30:23;;;;;;;110.13;34.87;;;-7.80;99.90;;;;;;4397274;28;663229;-62
2022/11/20 01:33:10;;;;;;;122.57;39.53;;;-7.80;99.90;;;;;;4384664;28;661842;-64
2022/11/20 01:36:06;;;;;;;157.93;49.13;;;-7.80;99.90;;;;;;4397304;28;662241;-62
2022/11/20 01:38:53;;;;;;;138.43;43.10;;;-7.80;99.90;;;;;;4370039;28;662055;-62
2022/11/20 01:44:53;;;;;;;126.27;41.43;;;-7.80;99.90;;;;;;4391557;28;661910;-64
2022/11/20 01:47:46;;;;;;;111.30;35.63;;;-7.90;99.90;;;;;;4349398;28;662507;-62
2022/11/20 01:50:34;;;;;;;103.38;32.03;;;-7.90;99.90;;;;;;4368321;28;662517;-63
2022/11/20 01:53:25;;;;;;;97.37;32.63;;;-8.00;99.90;;;;;;4374281;28;661940;-63
2022/11/20 01:56:15;;;;;;;87.03;29.10;;;-8.00;99.90;;;;;;4371111;28;662065;-63
2022/11/20 01:59:06;;;;;;;123.00;30.73;;;-8.00;99.90;;;;;;4370874;28;661240;-62
2022/11/20 02:01:53;;;;;;;100.40;34.53;;;-8.00;99.90;;;;;;4368525;28;662561;-62
2022/11/20 02:04:43;;;;;;;88.77;31.17;;;-8.00;99.90;;;;;;4374029;28;662034;-63
2022/11/20 02:07:30;;;;;;;107.07;34.38;;;-8.00;99.90;;;;;;4380594;28;660488;-64
2022/11/20 02:10:26;;;;;;;81.00;29.07;;;-8.00;99.90;;;;;;4396878;28;662867;-62
2022/11/20 02:16:23;;;;;;;72.57;24.50;;;-8.10;99.90;;;;;;4371014;28;660794;-63
2022/11/20 02:19:15;;;;;;;68.30;23.83;;;-8.10;99.90;;;;;;4358632;28;660909;-64
2022/11/20 02:22:07;;;;;;;76.00;25.33;;;-8.10;99.90;;;;;;4370841;28;661442;-62
2022/11/20 02:25:00;;;;;;;69.07;24.20;;;-8.10;99.90;;;;;;4370878;28;660768;-63
2022/11/20 02:27:53;;;;;;;66.70;22.90;;;-8.10;99.90;;;;;;4348167;28;662384;-63
2022/11/20 02:30:40;;;;;;;71.93;22.90;;;-8.10;99.90;;;;;;4362371;28;660688;-65
2022/11/20 02:33:27;;;;;;;64.55;22.88;;;-8.10;99.90;;;;;;4397505;28;660517;-62
2022/11/20 02:36:16;;;;;;;71.83;24.43;;;-8.10;99.90;;;;;;4393586;28;661477;-63
2022/11/20 02:39:05;;;;;;;62.43;22.93;;;-8.10;99.90;;;;;;4370504;28;661564;-63
2022/11/20 02:41:54;;;;;;;59.07;21.67;;;-8.10;99.90;;;;;;4370949;28;662093;-62
2022/11/20 02:44:43;;;;;;;59.03;22.07;;;-8.10;99.90;;;;;;4374503;28;660951;-64
2022/11/20 02:47:33;;;;;;;63.53;22.97;;;-8.20;99.90;;;;;;4374486;28;660827;-64
2022/11/20 02:50:20;;;;;;;60.88;23.30;;;-8.10;99.90;;;;;;4374578;28;660876;-64
2022/11/20 02:53:09;;;;;;;87.17;30.77;;;-8.20;99.90;;;;;;4397045;28;661920;-63
2022/11/20 02:55:56;;;;;;;109.83;36.70;;;-8.10;99.90;;;;;;4374522;28;660778;-64
2022/11/20 02:58:46;;;;;;;110.40;35.47;;;-8.10;99.90;;;;;;4391939;28;663162;-62
2022/11/20 03:01:37;;;;;;;109.33;35.83;;;-8.10;99.90;;;;;;4690831;28;663029;-63
2022/11/20 03:04:27;;;;;;;101.03;35.60;;;-8.10;99.90;;;;;;4521795;28;538887;-63
2022/11/20 03:07:15;;;;;;;83.77;31.27;;;-8.00;99.90;;;;;;4368885;28;661763;-63
2022/11/20 03:10:02;;;;;;;58.90;20.93;;;-8.10;99.90;;;;;;4370290;28;661252;-63
2022/11/20 03:12:58;;;;;;;66.83;24.63;;;-8.10;99.90;;;;;;4392869;28;660983;-63
2022/11/20 03:15:52;;;;;;;78.50;25.83;;;-8.10;99.90;;;;;;4349566;28;661023;-63
2022/11/20 03:18:41;;;;;;;69.33;25.23;;;-8.10;99.90;;;;;;4370152;28;660686;-62
2022/11/20 03:21:37;;;;;;;65.90;23.53;;;-8.10;99.90;;;;;;4369907;28;661981;-64
2022/11/20 03:24:24;;;;;;;56.70;21.53;;;-8.10;99.90;;;;;;4369843;28;661578;-63
2022/11/20 03:27:14;;;;;;;55.87;20.43;;;-8.10;99.90;;;;;;4373979;28;661731;-63
2022/11/20 03:30:05;;;;;;;89.60;27.90;;;-8.20;99.90;;;;;;4373745;28;660717;-63
2022/11/20 03:32:55;;;;;;;103.60;31.70;;;-8.20;99.90;;;;;;4369780;28;660790;-63
2022/11/20 03:35:42;;;;;;;100.67;31.17;;;-8.20;99.90;;;;;;4372615;28;661591;-63
2022/11/20 03:38:32;;;;;;;82.63;26.20;;;-8.20;99.90;;;;;;4391283;28;662171;-64
2022/11/20 03:41:20;;;;;;;64.43;22.43;;;-8.20;99.90;;;;;;4369563;28;661131;-63
2022/11/20 03:44:08;;;;;;;61.80;23.40;;;-8.20;99.90;;;;;;4373555;28;661502;-62
2022/11/20 03:46:55;;;;;;;62.80;22.07;;;-8.20;99.90;;;;;;4373552;28;660924;-63
2022/11/20 03:49:45;;;;;;;52.80;19.93;;;-8.20;99.90;;;;;;4391530;28;661819;-63
2022/11/20 03:52:32;;;;;;;49.80;18.90;;;-8.20;99.90;;;;;;4369495;28;661353;-62
2022/11/20 03:55:19;;;;;;;48.40;18.73;;;-8.20;99.90;;;;;;4392301;28;660386;-62
2022/11/20 03:58:06;;;;;;;49.03;18.13;;;-8.20;99.90;;;;;;4381899;28;660768;-63
2022/11/20 04:00:55;;;;;;;50.83;19.40;;;-8.20;99.90;;;;;;4409684;28;662005;-63
2022/11/20 04:03:46;;;;;;;50.47;18.33;;;-8.20;99.90;;;;;;4385979;28;661965;-62
2022/11/20 04:06:38;;;;;;;48.20;16.70;;;-8.20;99.90;;;;;;4387071;28;661585;-63
2022/11/20 04:09:26;;;;;;;47.53;17.33;;;-8.20;99.90;;;;;;4367956;28;661064;-64
2022/11/20 04:12:18;;;;;;;53.57;17.87;;;-8.20;99.90;;;;;;4409707;28;661349;-62
2022/11/20 04:15:05;;;;;;;53.37;18.90;;;-8.10;99.90;;;;;;4378923;28;661259;-64
2022/11/20 04:17:52;;;;;;;47.80;17.73;;;-8.10;99.90;;;;;;4413255;28;662085;-62
2022/11/20 04:20:44;;;;;;;51.13;18.73;;;-8.10;99.90;;;;;;4408707;28;661426;-65
2022/11/20 04:23:32;;;;;;;47.27;16.97;;;-8.00;99.90;;;;;;4394194;28;660869;-63
2022/11/20 04:26:24;;;;;;;42.83;14.90;;;-8.10;99.90;;;;;;4413122;28;661591;-63
2022/11/20 04:29:14;;;;;;;42.17;14.47;;;-8.10;99.90;;;;;;4394165;28;660557;-64
2022/11/20 04:32:01;;;;;;;37.35;14.07;;;-8.20;99.90;;;;;;4394241;28;660956;-63
2022/11/20 04:34:48;;;;;;;35.65;12.90;;;-8.20;99.90;;;;;;4412782;28;662009;-62
2022/11/20 04:37:42;;;;;;;32.13;13.77;;;-8.20;99.90;;;;;;4393815;28;660609;-64
2022/11/20 04:40:30;;;;;;;42.95;15.63;;;-8.20;99.90;;;;;;4389680;28;660783;-63
2022/11/20 04:43:20;;;;;;;40.93;15.27;;;-8.20;99.90;;;;;;4389623;28;661368;-63
2022/11/20 04:46:25;;;;;;;35.60;14.30;;;-8.20;99.90;;;;;;4389358;28;661571;-63
2022/11/20 04:49:21;;;;;;;33.20;12.10;;;-8.20;99.90;;;;;;4366733;28;662179;-62
2022/11/20 04:52:11;;;;;;;36.97;12.93;;;-8.20;99.90;;;;;;4389608;28;661378;-63
2022/11/20 04:55:09;;;;;;;46.13;15.93;;;-8.20;99.90;;;;;;4389412;28;661369;-62
2022/11/20 04:58:01;;;;;;;40.80;14.33;;;-8.30;99.90;;;;;;4391740;28;661323;-63
2022/11/20 05:00:52;;;;;;;33.13;12.73;;;-8.30;99.90;;;;;;4541431;28;662281;-63
2022/11/20 05:03:42;;;;;;;36.57;13.23;;;-8.30;99.90;;;;;;4712175;28;572454;-63
2022/11/20 05:06:29;;;;;;;36.13;14.27;;;-8.30;99.90;;;;;;4389373;28;660570;-63
2022/11/20 05:09:19;;;;;;;36.00;12.93;;;-8.20;99.90;;;;;;4392271;28;660821;-63
2022/11/20 05:12:11;;;;;;;36.93;12.57;;;-8.20;99.90;;;;;;4393171;28;661144;-64
2022/11/20 05:15:05;;;;;;;33.50;12.23;;;-8.20;99.90;;;;;;4389430;28;661971;-63
2022/11/20 05:17:54;;;;;;;34.13;11.52;;;-8.30;99.90;;;;;;4393200;28;660856;-62
2022/11/20 05:20:41;;;;;;;33.05;11.55;;;-8.30;99.90;;;;;;4389539;28;661713;-64
2022/11/20 05:23:33;;;;;;;31.67;10.50;;;-8.20;99.90;;;;;;4416308;28;662156;-63
2022/11/20 05:26:25;;;;;;;29.13;11.50;;;-8.10;99.90;;;;;;4366149;28;660935;-63
2022/11/20 05:29:14;;;;;;;32.63;12.13;;;-8.10;99.90;;;;;;4388821;28;661568;-62
2022/11/20 05:32:02;;;;;;;30.97;11.83;;;-8.30;99.90;;;;;;4392825;28;661746;-62
2022/11/20 05:34:50;;;;;;;34.57;12.10;;;-8.30;99.90;;;;;;4408840;28;660716;-65
2022/11/20 05:37:37;;;;;;;30.27;12.48;;;-8.20;99.90;;;;;;4415959;28;660528;-62
2022/11/20 05:40:24;;;;;;;31.93;12.23;;;-8.20;99.90;;;;;;4412000;28;661564;-62
2022/11/20 05:43:11;;;;;;;34.87;11.70;;;-8.20;99.90;;;;;;4389920;28;660462;-63
2022/11/20 05:45:58;;;;;;;42.60;14.53;;;-8.20;99.90;;;;;;4412060;28;661227;-62
2022/11/20 05:48:47;;;;;;;34.07;13.90;;;-8.30;99.90;;;;;;4392730;28;660845;-63
2022/11/20 05:51:34;;;;;;;34.73;13.80;;;-8.30;99.90;;;;;;4411631;28;660882;-63
2022/11/20 05:54:21;;;;;;;37.03;12.70;;;-8.30;99.90;;;;;;4393101;28;661129;-63
2022/11/20 05:57:08;;;;;;;37.23;14.03;;;-8.20;99.90;;;;;;4411745;28;662526;-63
2022/11/20 05:59:55;;;;;;;30.65;12.25;;;-8.20;99.90;;;;;;4392682;28;660420;-65
2022/11/20 06:02:42;;;;;;;29.77;12.00;;;-8.20;99.90;;;;;;4415658;28;661544;-63
2022/11/20 06:05:31;;;;;;;43.37;14.00;;;-8.10;99.90;;;;;;4410969;28;660355;-63
2022/11/20 06:08:18;;;;;;;35.70;14.30;;;-8.10;99.90;;;;;;4388546;28;661214;-63
2022/11/20 06:11:05;;;;;;;31.63;12.17;;;-8.10;99.90;;;;;;4398333;28;660555;-64
2022/11/20 06:13:53;;;;;;;57.03;20.63;;;-8.10;99.90;;;;;;4411249;28;660652;-63
2022/11/20 06:16:40;;;;;;;60.00;19.13;;;-8.00;99.90;;;;;;4404199;28;660937;-65
2022/11/20 06:19:27;;;;;;;41.38;15.27;;;-8.00;99.90;;;;;;4415187;28;660823;-64
2022/11/20 06:22:16;;;;;;;38.77;14.23;;;-7.90;99.90;;;;;;4410625;28;661288;-63
2022/11/20 06:25:03;;;;;;;35.30;12.63;;;-7.90;99.90;;;;;;4388447;28;661843;-63
2022/11/20 06:27:50;;;;;;;36.42;13.15;;;-7.90;99.90;;;;;;4397049;28;660799;-64
2022/11/20 06:30:37;;;;;;;30.20;11.97;;;-7.90;99.90;;;;;;4410828;28;662214;-64
2022/11/20 06:33:24;;;;;;;31.17;12.23;;;-7.90;99.90;;;;;;4415140;28;660650;-63
2022/11/20 06:36:12;;;;;;;32.63;12.27;;;-7.80;99.90;;;;;;4392034;28;661789;-64
2022/11/20 06:39:01;;;;;;;53.17;18.60;;;-7.80;99.90;;;;;;4410987;28;661758;-62
2022/11/20 06:41:48;;;;;;;45.87;17.70;;;-7.70;99.90;;;;;;4387837;28;662134;-63
2022/11/20 06:44:35;;;;;;;37.90;14.87;;;-7.60;99.90;;;;;;4399127;28;661569;-65
2022/11/20 06:47:22;;;;;;;36.80;13.70;;;-7.50;99.90;;;;;;4416134;28;660653;-63
2022/11/20 06:50:10;;;;;;;37.33;13.93;;;-7.40;99.90;;;;;;4411653;28;660393;-63
2022/11/20 06:52:57;;;;;;;45.43;14.87;;;-7.40;99.90;;;;;;4388779;28;662276;-62
2022/11/20 06:55:45;;;;;;;68.13;20.70;;;-7.30;99.90;;;;;;4410288;28;660518;-62
2022/11/20 06:58:33;;;;;;;459.07;86.50;;;-7.30;99.90;;;;;;4385090;28;661521;-63
2022/11/20 07:01:20;;;;;;;385.80;71.90;;;-7.20;99.90;;;;;;4675996;28;662716;-63
2022/11/20 07:04:07;;;;;;;173.53;41.87;;;-7.00;99.90;;;;;;4595849;28;577729;-63
2022/11/20 07:06:54;;;;;;;100.67;29.13;;;-6.90;99.90;;;;;;4410214;28;661837;-63
2022/11/20 07:09:41;;;;;;;111.70;29.93;;;-6.80;99.90;;;;;;4391299;28;663218;-62
2022/11/20 07:12:30;;;;;;;95.30;31.00;;;-6.60;99.90;;;;;;4409956;28;661861;-63
2022/11/20 07:15:17;;;;;;;106.87;35.00;;;-6.50;99.90;;;;;;4392373;28;661409;-63
2022/11/20 07:18:04;;;;;;;112.33;36.77;;;-6.30;99.90;;;;;;4410003;28;661243;-62
2022/11/20 07:20:51;;;;;;;149.90;45.08;;;-6.20;99.90;;;;;;4387755;28;661649;-63
2022/11/20 07:23:38;;;;;;;165.93;49.33;;;-6.00;99.90;;;;;;4409774;28;662748;-63
2022/11/20 07:26:25;;;;;;;161.23;50.30;;;-5.80;99.90;;;;;;4391055;28;661569;-64
2022/11/20 07:29:14;;;;;;;145.43;44.50;;;-5.60;99.90;;;;;;4409833;28;662556;-63
2022/11/20 07:32:01;;;;;;;140.53;42.87;;;-5.50;99.90;;;;;;4390844;28;661687;-63
2022/11/20 07:34:48;;;;;;;130.93;39.67;;;-5.30;99.90;;;;;;4409486;28;662987;-63
2022/11/20 07:37:35;;;;;;;119.78;38.28;;;-5.20;99.90;;;;;;4391154;28;661460;-64
2022/11/20 07:40:22;;;;;;;87.03;33.40;;;-4.90;99.90;;;;;;4413659;28;661516;-63
2022/11/20 07:43:09;;;;;;;93.70;33.20;;;-4.70;99.90;;;;;;4410664;28;660703;-63
2022/11/20 07:45:58;;;;;;;92.03;33.70;;;-4.30;99.90;;;;;;4392463;28;660604;-63
2022/11/20 07:48:45;;;;;;;93.07;34.10;;;-4.00;99.90;;;;;;4396528;28;660994;-65
2022/11/20 07:51:33;;;;;;;88.80;32.87;;;-3.80;99.90;;;;;;4415041;28;661645;-63
2022/11/20 07:54:20;;;;;;;85.00;32.07;;;-3.50;99.90;;;;;;4403542;28;660638;-64
2022/11/20 07:57:07;;;;;;;83.33;32.00;;;-3.20;99.90;;;;;;4414775;28;662176;-63
2022/11/20 07:59:54;;;;;;;77.73;30.80;;;-2.80;99.90;;;;;;4410166;28;662163;-63
2022/11/20 08:02:43;;;;;;;69.50;30.00;;;-2.20;99.90;;;;;;4390821;28;660549;-64
2022/11/20 08:05:30;;;;;;;75.82;30.80;;;-1.90;99.90;;;;;;4396010;28;660766;-64
2022/11/20 08:08:17;;;;;;;65.07;27.42;;;-1.30;99.90;;;;;;4413784;28;662539;-63
2022/11/20 08:14:15;;;;;;;61.87;28.37;;;-0.50;99.90;;;;;;4386776;28;660920;-64
2022/11/20 08:17:02;;;;;;;69.97;29.33;;;-0.20;99.90;;;;;;4364066;28;661217;-63
2022/11/20 08:19:51;;;;;;;65.00;30.93;;;0.50;99.90;;;;;;4409774;28;660861;-63
2022/11/20 08:22:38;;;;;;;67.50;30.23;;;0.90;99.90;;;;;;4388166;28;660107;-63
2022/11/20 08:25:25;;;;;;;67.77;31.27;;;1.20;99.90;;;;;;4398628;28;659227;-65
2022/11/20 08:28:12;;;;;;;77.90;35.28;;;1.70;99.90;;;;;;4410146;28;660748;-64
2022/11/20 08:31:00;;;;;;;73.23;33.60;;;2.10;99.90;;;;;;4410965;28;659736;-64
2022/11/20 08:33:47;;;;;;;78.67;34.73;;;2.20;99.90;;;;;;4387746;28;661206;-64
2022/11/20 08:36:35;;;;;;;74.47;34.03;;;1.90;99.90;;;;;;4409263;28;659214;-64
2022/11/20 08:39:22;;;;;;;70.47;33.27;;;2.40;99.90;;;;;;4388336;28;660981;-63
2022/11/20 08:42:10;;;;;;;74.77;34.40;;;2.70;99.90;;;;;;4406744;28;659955;-65
2022/11/20 08:44:57;;;;;;;73.67;33.43;;;2.50;99.90;;;;;;4411944;28;660545;-64
2022/11/20 08:47:45;;;;;;;70.60;30.00;;;2.80;99.90;;;;;;4408245;28;659497;-65
2022/11/20 08:50:33;;;;;;;61.03;28.00;;;3.40;99.90;;;;;;4411733;28;660892;-65
2022/11/20 08:53:21;;;;;;;54.50;25.97;;;3.10;99.90;;;;;;4396054;28;659682;-65
2022/11/20 08:56:09;;;;;;;48.37;23.90;;;3.60;99.90;;;;;;4411494;28;660123;-64
2022/11/20 08:58:56;;;;;;;28.53;15.73;;;3.60;99.90;;;;;;4392699;28;659289;-64
2022/11/20 09:01:43;;;;;;;40.73;18.77;;;4.20;98.20;;;;;;4773839;28;659757;-65
2022/11/20 09:04:30;;;;;;;36.33;16.43;;;4.30;92.10;;;;;;4507293;28;536916;-65
2022/11/20 09:07:17;;;;;;;34.77;16.70;;;4.60;86.20;;;;;;4414801;28;661672;-64
2022/11/20 09:10:07;;;;;;;35.63;16.03;;;4.20;90.10;;;;;;4414867;28;659882;-63
2022/11/20 09:12:55;;;;;;;37.57;18.33;;;3.70;90.00;;;;;;4391566;28;659468;-63
2022/11/20 09:15:42;;;;;;;35.37;15.37;;;3.50;92.60;;;;;;4391468;28;661231;-63
2022/11/20 09:18:30;;;;;;;39.93;17.63;;;2.80;88.50;;;;;;4414317;28;660126;-63
2022/11/20 09:21:17;;;;;;;48.70;21.77;;;2.00;94.50;;;;;;4395734;28;660345;-63
2022/11/20 09:24:05;;;;;;;58.20;26.73;;;1.70;99.90;;;;;;4414452;28;660313;-63
2022/11/20 09:26:54;;;;;;;58.47;26.63;;;1.60;99.90;;;;;;4392429;28;660519;-64
2022/11/20 09:29:41;;;;;;;62.37;28.20;;;1.30;99.90;;;;;;4395174;28;659783;-65
2022/11/20 09:32:28;;;;;;;60.43;27.93;;;1.00;99.90;;;;;;4415665;28;660579;-64
2022/11/20 09:35:15;;;;;;;65.20;26.98;;;0.80;99.90;;;;;;4400309;28;659491;-65
2022/11/20 09:38:06;;;;;;;58.03;25.83;;;0.80;99.90;;;;;;4418445;28;661110;-63
2022/11/20 09:40:57;;;;;;;54.83;24.63;;;0.90;99.90;;;;;;4395211;28;659762;-64
2022/11/20 09:43:50;;;;;;;54.23;22.60;;;0.70;99.90;;;;;;4390829;28;659791;-64
2022/11/20 09:46:41;;;;;;;64.70;29.00;;;0.60;99.90;;;;;;4387260;28;660031;-64
2022/11/20 09:49:32;;;;;;;71.17;29.57;;;0.50;99.90;;;;;;4390752;28;661133;-64
2022/11/20 09:52:23;;;;;;;83.90;35.30;;;0.50;99.90;;;;;;4390987;28;659964;-64
2022/11/20 09:55:11;;;;;;;76.47;32.43;;;0.40;99.90;;;;;;4378835;28;659923;-65
2022/11/20 09:57:58;;;;;;;72.27;31.30;;;0.40;99.90;;;;;;4413699;28;661515;-63
2022/11/20 10:00:46;;;;;;;75.20;31.23;;;0.50;99.90;;;;;;4394889;28;660838;-65
2022/11/20 10:03:39;;;;;;;66.37;28.77;;;0.50;99.90;;;;;;4413663;28;659899;-64
2022/11/20 10:06:30;;;;;;;60.50;27.57;;;0.40;99.90;;;;;;4394572;28;660374;-64
2022/11/20 10:09:22;;;;;;;63.53;28.98;;;0.40;99.90;;;;;;4394897;28;660474;-63
2022/11/20 10:12:14;;;;;;;75.80;31.93;;;0.40;99.90;;;;;;4390208;28;659698;-64
2022/11/20 10:15:11;;;;;;;65.47;29.53;;;0.40;99.90;;;;;;4367751;28;661372;-64
2022/11/20 10:18:12;;;;;;;72.65;32.03;;;0.40;99.90;;;;;;4383982;28;659870;-64
2022/11/20 10:21:02;;;;;;;76.77;31.07;;;0.30;99.90;;;;;;4390420;28;660222;-63
2022/11/20 10:24:00;;;;;;;72.23;31.10;;;0.30;99.90;;;;;;4390600;28;660843;-63
2022/11/20 10:26:51;;;;;;;78.90;31.73;;;0.40;99.90;;;;;;4371349;28;661195;-64
2022/11/20 10:29:39;;;;;;;69.15;26.92;;;0.30;99.90;;;;;;4390362;28;661099;-64
2022/11/20 10:32:29;;;;;;;66.73;28.80;;;0.40;99.90;;;;;;4394253;28;659726;-64
2022/11/20 10:35:21;;;;;;;65.78;27.33;;;0.30;99.90;;;;;;4394086;28;659536;-64
2022/11/20 10:38:13;;;;;;;81.40;32.20;;;0.50;99.90;;;;;;4388634;28;660719;-63
2022/11/20 10:44:04;;;;;;;76.27;32.73;;;0.60;99.90;;;;;;4382822;28;660646;-64
2022/11/20 10:46:51;;;;;;;78.47;32.03;;;0.60;99.90;;;;;;4389513;28;659896;-64
2022/11/20 10:49:38;;;;;;;66.20;28.17;;;0.70;99.90;;;;;;4412211;28;660985;-64
2022/11/20 10:52:31;;;;;;;53.47;24.10;;;0.70;99.90;;;;;;4392933;28;659842;-65
2022/11/20 10:55:26;;;;;;;59.47;25.77;;;0.70;99.90;;;;;;4388090;28;661215;-64
2022/11/20 10:58:15;;;;;;;52.07;23.83;;;0.70;99.90;;;;;;4375630;28;659996;-64
2022/11/20 11:01:06;;;;;;;63.93;27.30;;;0.70;99.90;;;;;;4579407;28;661239;-64
2022/11/20 11:03:53;;;;;;;63.93;27.70;;;0.80;99.90;;;;;;4636685;28;537134;-64
2022/11/20 11:06:41;;;;;;;64.00;27.13;;;0.90;99.90;;;;;;4379675;28;660001;-65
2022/11/20 11:09:40;;;;;;;70.23;28.67;;;0.90;99.90;;;;;;4394243;28;661013;-64
2022/11/20 11:12:29;;;;;;;67.60;28.77;;;1.00;99.90;;;;;;4348553;28;661069;-64
2022/11/20 11:15:25;;;;;;;66.17;26.27;;;0.90;99.90;;;;;;4375721;28;659591;-64
2022/11/20 11:18:12;;;;;;;62.40;26.33;;;1.00;99.90;;;;;;4375466;28;659566;-64
2022/11/20 11:21:01;;;;;;;49.97;21.50;;;0.90;99.90;;;;;;4394210;28;659407;-64
2022/11/20 11:23:48;;;;;;;49.57;21.90;;;0.90;99.90;;;;;;4370456;28;660427;-64
2022/11/20 11:26:36;;;;;;;64.00;26.47;;;1.10;99.90;;;;;;4379194;28;659651;-65
2022/11/20 11:29:26;;;;;;;73.67;28.67;;;1.20;99.90;;;;;;4394064;28;659831;-64
2022/11/20 11:32:14;;;;;;;58.03;23.70;;;1.20;99.90;;;;;;4366878;28;660434;-64
2022/11/20 11:35:02;;;;;;;68.10;27.10;;;1.20;99.90;;;;;;4375097;28;659531;-64
2022/11/20 11:37:49;;;;;;;50.73;21.83;;;1.10;99.90;;;;;;4393098;28;659048;-64
2022/11/20 11:40:37;;;;;;;52.90;21.73;;;1.00;99.90;;;;;;4374903;28;659528;-64
2022/11/20 11:46:32;;;;;;;52.00;21.87;;;0.90;99.90;;;;;;4365431;28;660248;-64
2022/11/20 11:49:20;;;;;;;49.60;22.17;;;0.80;99.90;;;;;;4410785;28;660017;-64
2022/11/20 11:52:12;;;;;;;55.20;24.57;;;0.60;99.90;;;;;;4388244;28;660422;-64
2022/11/20 11:55:00;;;;;;;61.67;23.97;;;0.60;99.90;;;;;;4388013;28;659872;-64
2022/11/20 11:57:50;;;;;;;57.57;25.97;;;0.60;99.90;;;;;;4382310;28;660899;-64
2022/11/20 12:00:40;;;;;;;54.07;20.77;;;0.50;99.90;;;;;;4371032;28;660436;-63
2022/11/20 12:03:29;;;;;;;67.15;26.70;;;0.50;99.90;;;;;;4374835;28;660730;-63
2022/11/20 12:06:16;;;;;;;63.37;25.43;;;0.20;99.90;;;;;;4374740;28;659677;-64
2022/11/20 12:09:04;;;;;;;63.00;25.10;;;0.10;99.90;;;;;;4393815;28;661540;-64
2022/11/20 12:11:52;;;;;;;64.70;26.80;;;0.20;99.90;;;;;;4374929;28;659442;-64
2022/11/20 12:14:40;;;;;;;75.83;31.17;;;0.30;99.90;;;;;;4397620;28;659635;-64
2022/11/20 12:17:28;;;;;;;73.27;30.53;;;0.30;99.90;;;;;;4374954;28;660396;-64
2022/11/20 12:20:16;;;;;;;83.70;34.27;;;0.30;99.90;;;;;;4374815;28;659705;-64
2022/11/20 12:23:05;;;;;;;77.20;30.73;;;0.50;99.90;;;;;;4395893;28;660665;-64
2022/11/20 12:25:53;;;;;;;88.97;36.10;;;0.60;99.90;;;;;;4369597;28;661253;-64
2022/11/20 12:28:50;;;;;;;87.53;35.90;;;0.60;99.90;;;;;;4374395;28;659894;-64
2022/11/20 12:31:44;;;;;;;89.63;35.67;;;0.70;99.90;;;;;;4370880;28;661124;-64
2022/11/20 12:34:49;;;;;;;82.27;32.93;;;0.80;99.90;;;;;;4347766;28;660818;-64
2022/11/20 12:37:39;;;;;;;70.82;30.30;;;0.70;99.90;;;;;;4351049;28;661350;-64
2022/11/20 12:40:30;;;;;;;89.87;38.03;;;0.70;99.90;;;;;;4377881;28;660051;-64
2022/11/20 12:46:28;;;;;;;78.97;34.20;;;0.70;99.90;;;;;;4391141;28;659780;-64
2022/11/20 12:49:29;;;;;;;77.60;32.37;;;0.80;99.90;;;;;;4382396;28;660242;-65
2022/11/20 12:52:38;;;;;;;77.27;30.73;;;0.90;99.90;;;;;;4372083;28;661168;-64
2022/11/20 12:55:29;;;;;;;74.53;29.37;;;0.70;99.90;;;;;;4373629;28;660452;-65
2022/11/20 12:58:20;;;;;;;75.40;28.47;;;0.70;99.90;;;;;;4381446;28;659791;-64
2022/11/20 13:01:39;;;;;;;74.80;30.00;;;0.60;99.90;;;;;;4600228;28;661034;-64
2022/11/20 13:04:36;;;;;;;78.13;30.47;;;0.60;99.90;;;;;;4544597;28;536108;-64
2022/11/20 13:07:23;;;;;;;92.00;34.73;;;0.90;99.90;;;;;;4370319;28;660156;-64
2022/11/20 13:10:17;;;;;;;91.07;38.47;;;1.20;99.90;;;;;;4378500;28;660037;-64
2022/11/20 13:13:06;;;;;;;84.57;35.22;;;1.60;99.90;;;;;;4373483;28;659724;-64
2022/11/20 13:15:55;;;;;;;93.90;37.60;;;1.80;99.90;;;;;;4373514;28;660882;-64
2022/11/20 13:18:44;;;;;;;92.03;35.77;;;1.80;99.90;;;;;;4377463;28;660767;-64
2022/11/20 13:21:38;;;;;;;82.43;34.97;;;3.00;99.90;;;;;;4377402;28;661370;-64
2022/11/20 13:24:27;;;;;;;83.40;35.37;;;3.70;99.90;;;;;;4354612;28;660099;-65
2022/11/20 13:27:21;;;;;;;95.43;38.17;;;3.20;99.90;;;;;;4395750;28;659207;-65
2022/11/20 13:30:17;;;;;;;91.30;38.50;;;2.70;99.90;;;;;;4373072;28;660319;-64
2022/11/20 13:33:07;;;;;;;73.40;34.17;;;2.20;99.90;;;;;;4373208;28;659559;-64
2022/11/20 13:35:56;;;;;;;77.43;33.73;;;1.90;99.90;;;;;;4373238;28;659818;-64
2022/11/20 13:38:45;;;;;;;80.07;35.83;;;2.80;99.90;;;;;;4372991;28;661382;-64
2022/11/20 13:41:35;;;;;;;81.00;35.90;;;5.10;99.90;;;;;;4373397;28;660676;-64
2022/11/20 13:44:25;;;;;;;76.77;33.40;;;5.90;96.20;;;;;;4374318;28;660742;-64
2022/11/20 13:47:21;;;;;;;86.60;38.33;;;6.70;91.90;;;;;;4372580;28;660466;-64
2022/11/20 13:50:09;;;;;;;87.57;36.40;;;6.80;90.70;;;;;;4368087;28;660633;-64
2022/11/20 13:52:59;;;;;;;90.00;38.10;;;6.70;87.70;;;;;;4377670;28;659563;-64
2022/11/20 13:55:48;;;;;;;86.53;39.40;;;7.30;85.50;;;;;;4377530;28;659692;-64
2022/11/20 13:58:41;;;;;;;85.40;38.97;;;7.60;84.60;;;;;;4377217;28;659631;-66
2022/11/20 14:01:31;;;;;;;87.17;40.23;;;8.20;79.70;;;;;;4373636;28;661158;-64
2022/11/20 14:04:21;;;;;;;86.97;40.37;;;8.10;75.00;;;;;;4372953;28;660211;-65
2022/11/20 14:07:08;;;;;;;87.87;41.07;;;7.90;75.70;;;;;;4373719;28;661063;-64
2022/11/20 14:09:56;;;;;;;101.67;43.33;;;6.80;77.40;;;;;;4380128;28;660155;-65
2022/11/20 14:12:43;;;;;;;102.63;43.03;;;5.10;82.70;;;;;;4398979;28;661425;-64
2022/11/20 14:15:31;;;;;;;95.37;42.33;;;3.90;90.30;;;;;;4383675;28;660931;-65
2022/11/20 14:18:22;;;;;;;101.63;43.47;;;3.00;94.90;;;;;;4395942;28;661688;-64
2022/11/20 14:21:10;;;;;;;109.47;45.80;;;2.40;99.90;;;;;;4371898;28;661343;-64
2022/11/20 14:24:05;;;;;;;112.17;45.43;;;1.90;99.90;;;;;;4371940;28;661917;-64
2022/11/20 14:26:52;;;;;;;111.13;47.33;;;1.50;99.90;;;;;;4371915;28;661442;-64
2022/11/20 14:29:40;;;;;;;137.97;54.63;;;1.10;99.90;;;;;;4394604;28;661272;-64
2022/11/20 14:32:28;;;;;;;125.63;53.37;;;0.90;99.90;;;;;;4375801;28;661265;-64